createdAt,value
2023-05-10T00:00:02.166Z,2.20
2023-05-10T00:02:28.678Z,2.65
2023-05-10T00:04:55.150Z,2.92
2023-05-10T00:07:21.729Z,2.60
2023-05-10T00:09:48.185Z,2.80
2023-05-10T00:12:14.583Z,3.33
2023-05-10T00:14:41.051Z,2.50
2023-05-10T00:17:07.439Z,2.42
2023-05-10T00:19:33.931Z,2.50
2023-05-10T00:22:00.326Z,2.42
2023-05-10T00:24:26.933Z,2.80
2023-05-10T00:26:53.393Z,2.70
2023-05-10T00:29:20.566Z,2.53
2023-05-10T00:31:47.119Z,2.80
2023-05-10T00:34:13.658Z,2.92
2023-05-10T00:36:40.133Z,2.55
2023-05-10T00:39:07.014Z,2.58
2023-05-10T00:41:33.662Z,5.15
2023-05-10T00:44:00.217Z,2.75
2023-05-10T00:46:26.972Z,2.72
2023-05-10T00:48:53.664Z,2.45
2023-05-10T00:51:20.530Z,2.70
2023-05-10T00:53:47.305Z,3.00
2023-05-10T00:56:14.086Z,2.55
2023-05-10T00:58:40.981Z,2.70
2023-05-10T01:01:08.622Z,2.83
2023-05-10T01:03:35.661Z,3.03
2023-05-10T01:06:02.504Z,3.13
2023-05-10T01:08:29.849Z,2.50
2023-05-10T01:10:56.464Z,2.90
2023-05-10T01:13:40.470Z,3.33
2023-05-10T01:16:07.809Z,3.25
2023-05-10T01:18:37.400Z,2.88
2023-05-10T01:21:16.177Z,2.95
2023-05-10T01:24:03.594Z,3.30
2023-05-10T01:26:36.420Z,3.17
2023-05-10T01:29:25.657Z,2.80
2023-05-10T01:32:10.802Z,3.30
2023-05-10T01:34:46.175Z,3.10
2023-05-10T01:37:21.306Z,2.67
2023-05-10T01:40:07.353Z,3.60
2023-05-10T01:42:42.510Z,2.80
2023-05-10T01:45:20.844Z,2.50
2023-05-10T01:48:03.191Z,3.13
2023-05-10T01:53:03.339Z,2.83
2023-05-10T01:55:33.120Z,3.17
2023-05-10T01:58:07.115Z,3.40
2023-05-10T02:00:35.366Z,3.30
2023-05-10T02:03:07.456Z,3.38
2023-05-10T02:05:36.342Z,3.80
2023-05-10T02:08:06.810Z,2.90
2023-05-10T02:10:36.166Z,3.05
2023-05-10T02:13:04.213Z,3.25
2023-05-10T02:15:32.052Z,3.42
2023-05-10T02:18:01.070Z,3.10
2023-05-10T02:20:28.203Z,3.20
2023-05-10T02:22:56.831Z,3.30
2023-05-10T02:25:25.004Z,2.92
2023-05-10T02:27:55.072Z,3.45
2023-05-10T02:30:23.556Z,3.40
2023-05-10T02:32:51.539Z,3.72
2023-05-10T02:35:18.511Z,3.72
2023-05-10T02:37:46.190Z,3.53
2023-05-10T02:40:13.833Z,3.55
2023-05-10T02:42:43.181Z,3.53
2023-05-10T02:45:14.235Z,4.07
2023-05-10T02:47:40.989Z,3.70
2023-05-10T02:50:08.278Z,4.22
2023-05-10T02:52:41.686Z,4.03
2023-05-10T02:55:10.838Z,3.97
2023-05-10T02:57:41.742Z,3.30
2023-05-10T03:00:09.440Z,3.13
2023-05-10T03:02:37.294Z,4.00
2023-05-10T03:05:04.399Z,4.03
2023-05-10T03:07:30.924Z,3.75
2023-05-10T03:09:57.703Z,4.07
2023-05-10T03:12:49.096Z,4.63
2023-05-10T03:15:27.731Z,4.47
2023-05-10T03:18:10.202Z,5.25
2023-05-10T03:20:42.348Z,4.72
2023-05-10T03:23:14.759Z,4.50
2023-05-10T03:25:42.110Z,3.95
2023-05-10T03:28:09.808Z,4.25
2023-05-10T03:30:37.505Z,4.88
2023-05-10T03:33:07.816Z,5.22
2023-05-10T03:35:34.895Z,4.40
2023-05-10T03:38:01.844Z,4.90
2023-05-10T03:40:33.053Z,5.65
2023-05-10T03:43:00.373Z,4.40
2023-05-10T03:45:27.434Z,5.30
2023-05-10T03:47:54.906Z,4.63
2023-05-10T03:50:21.928Z,4.28
2023-05-10T03:52:48.328Z,5.82
2023-05-10T03:55:14.794Z,5.20
2023-05-10T03:57:41.647Z,4.45
2023-05-10T04:00:09.115Z,4.70
2023-05-10T04:02:35.680Z,4.72
2023-05-10T04:05:02.719Z,5.15
2023-05-10T04:07:29.386Z,4.88
2023-05-10T04:09:55.845Z,4.72
2023-05-10T04:12:22.399Z,5.43
2023-05-10T04:14:48.817Z,6.05
2023-05-10T04:17:15.343Z,6.53
2023-05-10T04:19:41.792Z,5.03
2023-05-10T04:22:08.164Z,5.47
2023-05-10T04:24:34.739Z,6.35
2023-05-10T04:27:01.477Z,5.88
2023-05-10T04:29:28.032Z,5.82
2023-05-10T04:31:56.201Z,5.80
2023-05-10T04:34:22.666Z,6.05
2023-05-10T04:36:49.149Z,5.88
2023-05-10T04:39:15.664Z,5.38
2023-05-10T04:41:42.086Z,5.57
2023-05-10T04:44:08.502Z,6.05
2023-05-10T04:46:35.077Z,5.95
2023-05-10T04:49:02.022Z,5.70
2023-05-10T04:51:28.433Z,5.45
2023-05-10T04:54:05.328Z,6.40
2023-05-10T04:56:33.503Z,6.18
2023-05-10T04:59:00.035Z,6.00
2023-05-10T05:01:26.569Z,7.70
2023-05-10T05:03:54.068Z,6.75
2023-05-10T05:06:21.903Z,6.28
2023-05-10T05:08:50.359Z,7.25
2023-05-10T05:11:17.946Z,6.55
2023-05-10T05:13:44.897Z,6.78
2023-05-10T05:16:12.276Z,7.00
2023-05-10T05:18:39.216Z,7.22
2023-05-10T05:21:16.048Z,6.35
2023-05-10T05:23:42.617Z,5.97
2023-05-10T05:26:09.193Z,6.30
2023-05-10T05:28:38.108Z,6.82
2023-05-10T05:31:06.513Z,7.38
2023-05-10T05:33:33.002Z,7.22
2023-05-10T05:36:02.336Z,6.45
2023-05-10T05:38:28.920Z,5.88
2023-05-10T05:40:55.401Z,6.47
2023-05-10T05:43:21.773Z,6.72
2023-05-10T05:45:48.371Z,5.97
2023-05-10T05:48:14.750Z,7.57
2023-05-10T05:50:41.179Z,6.32
2023-05-10T05:53:07.582Z,6.18
2023-05-10T05:55:35.011Z,5.95
2023-05-10T05:58:01.389Z,6.55
2023-05-10T06:00:28.016Z,6.63
2023-05-10T06:02:54.616Z,7.13
2023-05-10T06:05:21.897Z,6.63
2023-05-10T06:07:49.636Z,6.35
2023-05-10T06:10:16.249Z,6.97
2023-05-10T06:12:42.792Z,6.65
2023-05-10T06:15:10.596Z,7.57
2023-05-10T06:17:37.010Z,7.70
2023-05-10T06:20:03.952Z,7.15
2023-05-10T06:22:30.585Z,7.70
2023-05-10T06:24:57.116Z,6.97
2023-05-10T06:27:24.071Z,7.57
2023-05-10T06:29:52.272Z,6.45
2023-05-10T06:32:23.026Z,7.57
2023-05-10T06:34:49.416Z,7.22
2023-05-10T06:37:15.922Z,7.43
2023-05-10T06:39:42.351Z,7.13
2023-05-10T06:42:09.045Z,6.40
2023-05-10T06:44:35.751Z,7.43
2023-05-10T06:47:02.140Z,6.13
2023-05-10T06:49:28.600Z,6.55
2023-05-10T06:51:56.580Z,7.30
2023-05-10T06:54:24.007Z,8.02
2023-05-10T06:56:50.400Z,6.55
2023-05-10T06:59:17.652Z,7.22
2023-05-10T07:01:44.216Z,6.53
2023-05-10T07:04:10.915Z,8.18
2023-05-10T07:06:37.559Z,8.13
2023-05-10T07:09:04.067Z,7.50
2023-05-10T07:11:30.443Z,7.43
2023-05-10T07:13:57.005Z,7.22
2023-05-10T07:16:23.500Z,8.32
2023-05-10T07:18:51.304Z,6.93
2023-05-10T07:21:17.762Z,7.03
2023-05-10T07:23:45.258Z,6.93
2023-05-10T07:26:12.497Z,7.88
2023-05-10T07:28:39.122Z,7.53
2023-05-10T07:31:05.772Z,6.78
2023-05-10T07:33:33.330Z,6.75
2023-05-10T07:35:59.750Z,2.40
2023-05-10T07:38:26.100Z,1.75
2023-05-10T07:40:52.551Z,1.02
2023-05-10T07:43:18.905Z,1.00
2023-05-10T07:45:45.309Z,0.90
2023-05-10T07:48:12.260Z,0.75
2023-05-10T07:50:38.733Z,0.70
2023-05-10T07:53:05.077Z,0.43
2023-05-10T07:55:31.502Z,0.60
2023-05-10T07:57:58.113Z,0.50
2023-05-10T08:00:24.461Z,0.50
2023-05-10T08:02:50.891Z,0.40
2023-05-10T08:05:17.663Z,0.57
2023-05-10T08:07:44.230Z,0.50
2023-05-10T08:10:12.254Z,0.60
2023-05-10T08:12:39.319Z,0.70
2023-05-10T08:15:06.671Z,0.57
2023-05-10T08:17:33.591Z,0.60
2023-05-10T08:19:59.990Z,0.77
2023-05-10T08:22:26.982Z,0.70
2023-05-10T08:24:53.458Z,0.60
2023-05-10T08:27:19.811Z,0.75
2023-05-10T08:29:49.991Z,0.60
2023-05-10T08:32:17.084Z,0.60
2023-05-10T08:34:43.604Z,1.08
2023-05-10T08:37:11.409Z,1.05
2023-05-10T08:39:37.879Z,0.75
2023-05-10T08:42:05.844Z,0.70
2023-05-10T08:44:35.296Z,0.70
2023-05-10T08:47:05.463Z,0.80
2023-05-10T08:49:33.536Z,1.95
2023-05-10T08:52:06.212Z,0.75
2023-05-10T08:54:34.082Z,0.73
2023-05-10T08:57:00.850Z,0.70
2023-05-10T08:59:28.356Z,0.57
2023-05-10T09:01:58.294Z,0.57
2023-05-10T09:04:25.316Z,0.70
2023-05-10T09:06:51.849Z,0.73
2023-05-10T09:09:19.257Z,0.90
2023-05-10T09:11:46.120Z,1.00
2023-05-10T09:14:13.532Z,0.57
2023-05-10T09:16:40.876Z,1.00
2023-05-10T09:19:08.337Z,1.00
2023-05-10T09:21:39.089Z,0.90
2023-05-10T09:24:07.623Z,0.85
2023-05-10T09:26:36.380Z,1.00
2023-05-10T09:29:03.881Z,1.50
2023-05-10T09:31:55.806Z,0.90
2023-05-10T09:34:30.414Z,0.90
2023-05-10T09:36:59.209Z,1.00
2023-05-10T09:39:32.887Z,0.82
2023-05-10T09:42:04.777Z,1.20
2023-05-10T09:44:32.174Z,1.00
2023-05-10T09:46:59.434Z,1.10
2023-05-10T09:49:26.149Z,1.15
2023-05-10T09:52:02.970Z,1.00
2023-05-10T09:54:29.395Z,0.90
2023-05-10T09:56:56.097Z,0.60
2023-05-10T09:59:22.506Z,0.60
2023-05-10T10:01:52.464Z,0.80
2023-05-10T10:04:21.381Z,1.10
2023-05-10T10:06:48.001Z,0.80
2023-05-10T10:09:14.964Z,0.98
2023-05-10T10:11:42.366Z,1.13
2023-05-10T10:14:08.953Z,1.25
2023-05-10T10:16:35.983Z,1.00
2023-05-10T10:19:02.683Z,0.82
2023-05-10T10:21:29.313Z,0.60
2023-05-10T10:23:56.141Z,0.75
2023-05-10T10:26:23.517Z,0.80
2023-05-10T10:29:02.531Z,0.82
2023-05-10T10:31:37.995Z,0.88
2023-05-10T10:34:07.941Z,0.90
2023-05-10T10:36:41.822Z,1.10
2023-05-10T10:39:11.640Z,1.00
2023-05-10T10:41:59.625Z,0.70
2023-05-10T10:44:34.216Z,0.55
2023-05-10T10:47:30.971Z,0.63
2023-05-10T10:50:06.520Z,0.60
2023-05-10T10:52:46.114Z,0.52
2023-05-10T10:55:15.497Z,1.00
2023-05-10T10:57:42.571Z,0.75
2023-05-10T11:00:22.649Z,0.65
2023-05-10T11:02:50.603Z,0.50
2023-05-10T11:05:40.460Z,0.50
2023-05-10T11:08:28.706Z,0.50
2023-05-10T11:11:00.958Z,0.68
2023-05-10T11:13:51.135Z,0.70
2023-05-10T11:16:25.262Z,0.63
2023-05-10T11:18:59.419Z,0.63
2023-05-10T11:21:26.327Z,0.50
2023-05-10T11:23:57.723Z,0.40
2023-05-10T11:26:27.013Z,0.57
2023-05-10T11:28:59.365Z,0.80
2023-05-10T11:31:27.987Z,0.65
2023-05-10T11:33:56.661Z,0.57
2023-05-10T11:36:26.923Z,0.52
2023-05-10T11:38:54.484Z,0.90
2023-05-10T11:41:24.733Z,0.55
2023-05-10T11:43:52.733Z,0.63
2023-05-10T11:46:23.835Z,0.80
2023-05-10T11:48:52.481Z,0.50
2023-05-10T11:51:23.945Z,0.90
2023-05-10T11:53:53.437Z,0.70
2023-05-10T11:56:21.593Z,0.60
2023-05-10T11:58:57.656Z,0.52
2023-05-10T12:01:25.889Z,0.90
2023-05-10T12:03:54.651Z,0.60
2023-05-10T12:06:22.218Z,0.70
2023-05-10T12:08:53.424Z,0.75
2023-05-10T12:11:21.844Z,0.80
2023-05-10T12:13:48.924Z,1.05
2023-05-10T12:16:17.256Z,0.65
2023-05-10T12:18:43.974Z,0.80
2023-05-10T12:21:11.765Z,0.70
2023-05-10T12:23:42.125Z,0.52
2023-05-10T12:26:11.760Z,0.90
2023-05-10T12:28:39.378Z,0.40
2023-05-10T12:31:07.080Z,0.63
2023-05-10T12:33:43.924Z,0.50
2023-05-10T12:36:12.415Z,0.50
2023-05-10T12:38:49.521Z,0.50
2023-05-10T12:41:18.287Z,0.57
2023-05-10T12:43:46.406Z,0.65
2023-05-10T12:46:15.116Z,0.52
2023-05-10T12:48:43.388Z,0.60
2023-05-10T12:51:12.635Z,0.82
2023-05-10T12:53:41.434Z,1.08
2023-05-10T12:56:08.882Z,0.70
2023-05-10T12:58:36.344Z,0.77
2023-05-10T13:01:03.248Z,1.08
2023-05-10T13:03:29.835Z,0.80
2023-05-10T13:05:56.239Z,0.70
2023-05-10T13:08:22.643Z,0.90
2023-05-10T13:10:49.394Z,0.80
2023-05-10T13:13:16.458Z,2.28
2023-05-10T13:15:42.915Z,2.10
2023-05-10T13:18:09.352Z,1.45
2023-05-10T13:20:35.975Z,1.20
2023-05-10T13:23:03.480Z,1.00
2023-05-10T13:25:30.018Z,1.33
2023-05-10T13:27:56.444Z,1.02
2023-05-10T13:30:23.066Z,0.73
2023-05-10T13:32:49.513Z,1.10
2023-05-10T13:35:16.439Z,0.70
2023-05-10T13:37:42.806Z,0.80
2023-05-10T13:40:09.452Z,1.10
2023-05-10T13:42:35.837Z,0.80
2023-05-10T13:45:05.415Z,0.82
2023-05-10T13:47:31.945Z,0.95
2023-05-10T13:49:58.706Z,0.90
2023-05-10T13:52:25.370Z,0.80
2023-05-10T13:54:55.713Z,0.70
2023-05-10T13:57:22.441Z,0.80
2023-05-10T13:59:49.060Z,0.73
2023-05-10T14:02:15.560Z,0.95
2023-05-10T14:04:42.096Z,1.00
2023-05-10T14:07:08.880Z,0.60
2023-05-10T14:09:35.280Z,1.10
2023-05-10T14:12:01.785Z,1.25
2023-05-10T14:14:30.082Z,1.52
2023-05-10T14:16:56.875Z,2.30
2023-05-10T14:19:23.486Z,2.17
2023-05-10T14:21:49.909Z,1.25
2023-05-10T14:24:16.342Z,1.23
2023-05-10T14:26:42.690Z,1.00
2023-05-10T14:29:11.504Z,0.80
2023-05-10T14:31:38.836Z,1.02
2023-05-10T14:34:05.382Z,1.02
2023-05-10T14:36:32.710Z,1.02
2023-05-10T14:38:59.164Z,1.08
2023-05-10T14:41:25.712Z,1.33
2023-05-10T14:43:52.328Z,1.17
2023-05-10T14:46:19.202Z,1.20
2023-05-10T14:48:45.735Z,1.30
2023-05-10T14:51:12.273Z,1.50
2023-05-10T14:53:38.631Z,1.80
2023-05-10T14:56:05.212Z,1.50
2023-05-10T14:58:33.953Z,1.15
2023-05-10T15:01:00.644Z,1.23
2023-05-10T15:03:27.689Z,2.33
2023-05-10T15:05:54.652Z,2.22
2023-05-10T15:08:21.116Z,0.90
2023-05-10T15:10:47.767Z,0.93
2023-05-10T15:13:14.170Z,0.95
2023-05-10T15:15:40.804Z,1.17
2023-05-10T15:18:07.444Z,1.20
2023-05-10T15:20:33.951Z,1.13
2023-05-10T15:23:00.494Z,2.10
2023-05-10T15:25:27.226Z,1.52
2023-05-10T15:27:53.654Z,1.30
2023-05-10T15:30:20.728Z,1.55
2023-05-10T15:32:48.912Z,1.23
2023-05-10T15:35:18.898Z,1.35
2023-05-10T15:37:45.629Z,1.33
2023-05-10T15:40:12.424Z,1.30
2023-05-10T15:42:38.933Z,2.95
2023-05-10T15:45:06.013Z,2.70
2023-05-10T15:47:32.628Z,1.70
2023-05-10T15:49:59.165Z,1.63
2023-05-10T15:52:25.546Z,1.45
2023-05-10T15:54:51.938Z,1.35
2023-05-10T15:57:18.367Z,1.63
2023-05-10T15:59:45.832Z,1.80
2023-05-10T16:02:12.454Z,1.60
2023-05-10T16:04:39.080Z,1.60
2023-05-10T16:07:05.709Z,2.15
2023-05-10T16:09:32.059Z,2.45
2023-05-10T16:11:58.487Z,2.45
2023-05-10T16:14:24.940Z,2.05
2023-05-10T16:16:51.663Z,1.75
2023-05-10T16:19:18.423Z,2.10
2023-05-10T16:21:45.124Z,2.75
2023-05-10T16:24:12.034Z,28.40
2023-05-10T16:26:40.972Z,22.60
2023-05-10T16:29:08.696Z,13.45
2023-05-10T16:31:35.414Z,5.10
2023-05-10T16:34:02.180Z,7.68
2023-05-10T16:36:29.628Z,5.65
2023-05-10T16:38:56.542Z,6.18
2023-05-10T16:41:23.249Z,2.42
2023-05-10T16:43:50.282Z,2.70
2023-05-10T16:46:16.793Z,3.05
2023-05-10T16:48:43.472Z,4.18
2023-05-10T16:51:10.105Z,13.27
2023-05-10T16:53:36.619Z,6.85
2023-05-10T16:56:03.607Z,2.97
2023-05-10T16:58:30.075Z,2.58
2023-05-10T17:00:56.502Z,2.72
2023-05-10T17:03:23.331Z,2.22
2023-05-10T17:05:49.896Z,2.95
2023-05-10T17:08:16.429Z,2.78
2023-05-10T17:10:43.053Z,5.10
2023-05-10T17:13:10.612Z,4.97
2023-05-10T17:15:37.962Z,4.53
2023-05-10T17:18:05.012Z,3.05
2023-05-10T17:20:31.603Z,2.80
2023-05-10T17:22:58.048Z,3.58
2023-05-10T17:25:24.467Z,4.18
2023-05-10T17:27:50.911Z,3.47
2023-05-10T17:30:22.403Z,3.80
2023-05-10T17:32:49.038Z,3.40
2023-05-10T17:35:15.953Z,3.85
2023-05-10T17:37:44.101Z,6.40
2023-05-10T17:40:11.418Z,4.10
2023-05-10T17:42:37.984Z,4.55
2023-05-10T17:45:04.862Z,4.05
2023-05-10T17:47:31.512Z,2.30
2023-05-10T17:49:58.064Z,4.47
2023-05-10T17:52:24.509Z,3.65
2023-05-10T17:54:51.139Z,3.53
2023-05-10T17:57:17.524Z,3.00
2023-05-10T17:59:44.016Z,2.40
2023-05-10T18:02:10.673Z,3.00
2023-05-10T18:04:43.000Z,2.45
2023-05-10T18:07:09.934Z,3.13
2023-05-10T18:09:36.309Z,3.45
2023-05-10T18:12:03.391Z,1.92
2023-05-10T18:14:40.074Z,6.63
2023-05-10T18:17:07.571Z,3.00
2023-05-10T18:19:34.189Z,2.50
2023-05-10T18:22:00.679Z,6.82
2023-05-10T18:24:38.421Z,1.73
2023-05-10T18:27:06.974Z,2.13
2023-05-10T18:29:33.417Z,3.97
2023-05-10T18:31:59.854Z,3.22
2023-05-10T18:34:26.809Z,2.20
2023-05-10T18:36:53.354Z,2.65
2023-05-10T18:39:19.988Z,3.38
2023-05-10T18:41:46.543Z,4.40
2023-05-10T18:44:13.047Z,4.45
2023-05-10T18:46:39.548Z,4.22
2023-05-10T18:49:08.268Z,3.63
2023-05-10T18:51:34.891Z,3.25
2023-05-10T18:54:01.390Z,3.63
2023-05-10T18:56:27.830Z,2.88
2023-05-10T18:58:54.396Z,3.13
2023-05-10T19:01:21.174Z,3.75
2023-05-10T19:03:47.667Z,3.55
2023-05-10T19:06:14.138Z,8.68
2023-05-10T19:08:40.561Z,6.10
2023-05-10T19:11:07.113Z,4.18
2023-05-10T19:13:33.970Z,6.90
2023-05-10T19:16:05.387Z,3.85
2023-05-10T19:18:33.677Z,4.85
2023-05-10T19:21:03.726Z,4.18
2023-05-10T19:23:34.397Z,6.40
2023-05-10T19:26:01.386Z,5.13
2023-05-10T19:28:28.042Z,4.00
2023-05-10T19:30:54.633Z,3.75
2023-05-10T19:33:21.343Z,3.78
2023-05-10T19:35:51.974Z,3.47
2023-05-10T19:38:25.139Z,4.00
2023-05-10T19:40:57.912Z,3.03
2023-05-10T19:43:28.824Z,3.65
2023-05-10T19:45:58.926Z,3.35
2023-05-10T19:48:25.780Z,2.92
2023-05-10T19:50:53.021Z,3.50
2023-05-10T19:53:19.520Z,6.22
2023-05-10T19:55:46.151Z,2.90
2023-05-10T19:58:12.571Z,3.08
2023-05-10T20:00:39.065Z,2.83
2023-05-10T20:03:07.014Z,3.00
2023-05-10T20:05:35.540Z,3.08
2023-05-10T20:08:01.995Z,2.80
2023-05-10T20:10:28.433Z,2.88
2023-05-10T20:12:54.953Z,2.85
2023-05-10T20:15:23.055Z,2.50
2023-05-10T20:17:52.049Z,2.88
2023-05-10T20:20:20.072Z,3.00
2023-05-10T20:22:47.929Z,3.00
2023-05-10T20:25:15.836Z,2.67
2023-05-10T20:27:42.487Z,2.55
2023-05-10T20:30:10.301Z,2.88
2023-05-10T20:32:37.833Z,2.55
2023-05-10T20:35:05.289Z,2.33
2023-05-10T20:37:31.818Z,11.80
2023-05-10T20:39:58.402Z,2.88
2023-05-10T20:42:24.947Z,2.55
2023-05-10T20:44:51.604Z,2.40
2023-05-10T20:47:18.256Z,2.10
2023-05-10T20:49:44.708Z,2.70
2023-05-10T20:52:11.550Z,2.72
2023-05-10T20:54:37.969Z,3.05
2023-05-10T20:57:04.501Z,2.47
2023-05-10T20:59:31.068Z,3.03
2023-05-10T21:01:58.125Z,2.80
2023-05-10T21:04:25.663Z,3.28
2023-05-10T21:06:53.005Z,2.50
2023-05-10T21:09:19.441Z,2.50
2023-05-10T21:11:46.012Z,2.65
2023-05-10T21:14:12.542Z,3.00
2023-05-10T21:16:39.092Z,2.70
2023-05-10T21:19:07.081Z,2.90
2023-05-10T21:21:33.825Z,2.55
2023-05-10T21:24:00.246Z,2.42
2023-05-10T21:26:26.821Z,2.67
2023-05-10T21:28:53.374Z,2.90
2023-05-10T21:31:20.134Z,3.08
2023-05-10T21:33:46.602Z,2.63
2023-05-10T21:36:13.102Z,2.80
2023-05-10T21:38:40.328Z,3.05
2023-05-10T21:41:07.733Z,7.00
2023-05-10T21:43:34.148Z,3.17
2023-05-10T21:46:00.972Z,2.92
2023-05-10T21:48:27.354Z,2.65
2023-05-10T21:50:53.715Z,2.90
2023-05-10T21:53:20.301Z,2.33
2023-05-10T21:55:46.825Z,2.40
2023-05-10T21:58:13.366Z,2.58
2023-05-10T22:00:39.978Z,2.47
2023-05-10T22:03:06.620Z,2.58
2023-05-10T22:05:33.298Z,3.05
2023-05-10T22:08:00.199Z,2.25
2023-05-10T22:10:26.661Z,2.13
2023-05-10T22:12:53.125Z,2.20
2023-05-10T22:15:19.535Z,3.00
2023-05-10T22:17:45.956Z,2.80
2023-05-10T22:20:12.720Z,2.80
2023-05-10T22:22:39.507Z,2.50
2023-05-10T22:25:07.469Z,3.10
2023-05-10T22:27:34.623Z,2.95
2023-05-10T22:30:01.513Z,3.20
2023-05-10T22:32:28.337Z,3.63
2023-05-10T22:34:54.926Z,2.80
2023-05-10T22:37:21.411Z,5.07
2023-05-10T22:39:48.819Z,5.20
2023-05-10T22:42:15.856Z,3.42
2023-05-10T22:44:43.096Z,3.50
2023-05-10T22:47:09.762Z,3.35
2023-05-10T22:49:36.440Z,3.50
2023-05-10T22:52:03.007Z,3.13
2023-05-10T22:54:29.451Z,3.10
2023-05-10T22:56:56.456Z,4.03
2023-05-10T22:59:23.237Z,2.97
2023-05-10T23:01:49.738Z,3.17
2023-05-10T23:04:16.167Z,2.70
2023-05-10T23:06:42.596Z,3.50
2023-05-10T23:09:09.719Z,3.33
2023-05-10T23:11:36.352Z,3.35
2023-05-10T23:14:05.832Z,3.03
2023-05-10T23:16:32.663Z,3.22
2023-05-10T23:18:59.259Z,2.80
2023-05-10T23:21:25.728Z,2.70
2023-05-10T23:23:52.408Z,3.08
2023-05-10T23:26:18.984Z,2.90
2023-05-10T23:28:45.468Z,2.88
2023-05-10T23:31:11.898Z,2.72
2023-05-10T23:33:38.326Z,4.45
2023-05-10T23:36:05.062Z,3.00
2023-05-10T23:38:31.556Z,2.70
2023-05-10T23:40:58.061Z,2.83
2023-05-10T23:43:25.281Z,3.25
2023-05-10T23:45:56.586Z,2.53
2023-05-10T23:48:23.495Z,3.00
2023-05-10T23:50:50.058Z,2.70
2023-05-10T23:53:16.709Z,2.58
2023-05-10T23:55:43.443Z,2.75
2023-05-10T23:58:09.908Z,2.88
